Time;durP1;ratioP1;P1;durP2;ratioP2;P2;SDS_P1;SDS_P2;PMS_P1;PMS_P2;Temp;Humidity;BMP_temperature;BMP_pressure;BME280_temperature;BME280_humidity;BME280_pressure;Samples;Min_cycle;Max_cycle;Signal;HPM_P1;HPM_P2
2023/07/30 00:02:20;;;;;;;13.38;4.15;;;17.10;99.90;;;;;;5062087;28;20422;-93
2023/07/30 00:04:46;;;;;;;14.75;4.35;;;17.10;99.90;;;;;;5023788;28;20040;-93
2023/07/30 00:10:43;;;;;;;9.98;4.57;;;17.00;99.90;;;;;;5055567;28;20093;-95
2023/07/30 00:19:20;;;;;;;9.57;3.92;;;17.00;99.90;;;;;;5074987;28;20400;-93
2023/07/30 00:21:49;;;;;;;11.25;4.30;;;17.00;99.90;;;;;;5065115;28;20028;-93
2023/07/30 00:24:36;;;;;;;9.25;3.80;;;17.00;99.90;;;;;;5082795;28;20024;-94
2023/07/30 00:33:31;;;;;;;14.70;3.90;;;16.90;99.90;;;;;;5117568;28;20034;-91
2023/07/30 00:36:30;;;;;;;8.45;3.35;;;16.80;99.90;;;;;;5082094;28;20144;-91
2023/07/30 00:39:28;;;;;;;8.40;3.58;;;16.80;99.90;;;;;;5079098;28;20024;-92
2023/07/30 00:42:05;;;;;;;8.77;4.18;;;16.80;99.90;;;;;;5099428;28;20023;-91
2023/07/30 00:44:37;;;;;;;12.32;3.75;;;16.90;99.90;;;;;;5079781;28;20032;-92
2023/07/30 00:51:05;;;;;;;8.02;3.50;;;16.80;99.90;;;;;;5117154;28;20019;-91
2023/07/30 00:53:41;;;;;;;9.75;3.42;;;16.80;99.90;;;;;;5067432;28;20036;-90
2023/07/30 00:56:17;;;;;;;7.63;3.33;;;16.80;99.90;;;;;;5078594;28;20047;-90
2023/07/30 01:02:59;;;;;;;8.02;3.60;;;16.80;99.90;;;;;;5050110;28;20114;-90
2023/07/30 01:05:55;;;;;;;8.88;3.55;;;16.80;99.90;;;;;;5071827;28;20036;-89
2023/07/30 01:14:52;;;;;;;11.70;3.72;;;16.70;99.90;;;;;;5083844;28;20051;-89
2023/07/30 01:17:27;;;;;;;12.50;4.35;;;16.70;99.90;;;;;;5064892;28;20020;-90
2023/07/30 01:23:29;;;;;;;13.27;4.50;;;16.70;99.90;;;;;;5096633;28;20101;-92
2023/07/30 01:30:25;;;;;;;11.90;4.97;;;16.60;99.90;;;;;;5053929;28;20039;-93
2023/07/30 01:40:08;;;;;;;13.85;4.50;;;16.60;99.90;;;;;;4956092;29;20547;-93
2023/07/30 01:43:17;;;;;;;12.20;4.85;;;16.60;99.90;;;;;;4920586;29;20434;-93
2023/07/30 01:45:51;;;;;;;8.13;3.88;;;16.50;99.90;;;;;;4920309;29;20051;-90
2023/07/30 02:17:23;;;;;;;12.20;4.15;;;16.30;99.90;;;;;;4955586;29;20062;-90
2023/07/30 02:20:33;;;;;;;10.95;4.45;;;16.20;99.90;;;;;;4996816;28;20533;-91
2023/07/30 02:27:19;;;;;;;12.30;4.22;;;16.10;99.90;;;;;;5033231;28;20417;-93
2023/07/30 02:54:40;;;;;;;16.92;5.50;;;16.00;99.90;;;;;;5045323;28;20493;-94
2023/07/30 02:58:07;;;;;;;12.43;4.75;;;16.10;99.90;;;;;;5052925;28;20033;-92
2023/07/30 03:04:40;;;;;;;15.13;5.47;;;16.10;99.90;;;;;;4917176;29;20156;-93
2023/07/30 03:14:46;;;;;;;13.43;5.97;;;16.20;99.90;;;;;;4914372;29;20084;-93
2023/07/30 03:24:57;;;;;;;;;;;;;;;;;;;;;
2023/07/30 03:27:23;;;;;;;11.25;5.60;;;16.20;99.90;;;;;;4858639;29;20502;-90
2023/07/30 03:30:53;;;;;;;20.45;7.32;;;16.30;99.90;;;;;;4875657;29;20136;-90
2023/07/30 03:36:40;;;;;;;14.65;6.00;;;16.30;99.90;;;;;;4899628;29;20518;-91
2023/07/30 03:53:14;;;;;;;23.83;7.70;;;16.30;99.90;;;;;;4958061;28;20042;-90
2023/07/30 03:58:38;;;;;;;21.83;9.05;;;16.30;99.90;;;;;;4977726;28;20034;-89
2023/07/30 04:04:48;;;;;;;24.33;8.35;;;16.30;99.90;;;;;;4954942;28;20066;-91
2023/07/30 04:14:13;;;;;;;19.33;7.80;;;16.20;99.90;;;;;;4921301;29;20458;-94
2023/07/30 04:16:54;;;;;;;25.15;8.75;;;16.20;99.90;;;;;;4927966;29;20110;-93
2023/07/30 04:19:25;;;;;;;25.42;8.88;;;16.20;99.90;;;;;;4923574;29;20036;-94
2023/07/30 04:25:58;;;;;;;28.17;9.50;;;16.30;99.90;;;;;;4882107;29;20040;-93
2023/07/30 04:28:31;;;;;;;20.73;8.35;;;16.30;99.90;;;;;;4893012;29;20035;-93
2023/07/30 04:38:07;;;;;;;;;;;16.40;99.90;;;;;;5036562;28;20071;-93
2023/07/30 04:41:06;;;;;;;;;;;;;;;;;;;;;
2023/07/30 04:43:59;;;;;;;26.77;9.45;;;16.40;99.90;;;;;;5105511;28;20115;-92
2023/07/30 04:46:33;;;;;;;20.90;9.18;;;16.40;99.90;;;;;;5069364;28;20036;-92
2023/07/30 04:49:27;;;;;;;30.20;11.45;;;16.40;99.90;;;;;;5061243;28;20503;-92
2023/07/30 04:52:25;;;;;;;26.77;9.57;;;16.40;99.90;;;;;;5071674;28;20028;-90
2023/07/30 04:54:51;;;;;;;26.27;9.50;;;16.40;99.90;;;;;;5024280;28;20033;-90
2023/07/30 04:57:44;;;;;;;26.17;9.85;;;16.40;99.90;;;;;;5038356;28;20029;-90
2023/07/30 05:00:57;;;;;;;33.55;11.35;;;16.40;99.90;;;;;;5034201;28;20044;-89
2023/07/30 05:03:22;;;;;;;23.35;9.35;;;16.40;99.90;;;;;;4988973;28;20132;-90
2023/07/30 05:06:06;;;;;;;20.15;9.73;;;16.40;99.90;;;;;;5017842;28;20450;-90
2023/07/30 05:09:08;;;;;;;35.75;12.32;;;16.40;99.90;;;;;;5034136;28;20140;-89
2023/07/30 05:16:17;;;;;;;32.38;10.68;;;16.40;99.90;;;;;;4953148;29;20039;-93
2023/07/30 05:19:08;;;;;;;27.98;11.10;;;16.50;99.90;;;;;;4908658;29;20037;-93
2023/07/30 05:25:55;;;;;;;;;;;;;;;;;;;;;
2023/07/30 05:32:39;;;;;;;36.63;12.68;;;16.50;99.90;;;;;;5096542;28;20018;-94
2023/07/30 05:35:14;;;;;;;32.90;13.00;;;16.50;99.90;;;;;;5019543;28;20034;-94
2023/07/30 05:41:15;;;;;;;34.00;12.60;;;16.50;99.90;;;;;;5019793;28;20025;-95
2023/07/30 05:46:43;;;;;;;34.05;12.93;;;16.60;99.90;;;;;;4995951;28;20045;-91
2023/07/30 05:59:58;;;;;;;36.28;14.25;;;16.70;99.90;;;;;;5000785;28;20096;-91
2023/07/30 06:02:33;;;;;;;31.13;13.48;;;16.70;99.90;;;;;;4997104;28;20061;-90
2023/07/30 06:09:07;;;;;;;35.67;14.77;;;16.70;99.90;;;;;;5014437;28;20048;-91
2023/07/30 06:11:35;;;;;;;45.20;13.95;;;16.80;99.90;;;;;;5004659;28;20025;-90
2023/07/30 06:14:23;;;;;;;30.48;13.73;;;16.80;99.90;;;;;;5000936;28;20064;-91
2023/07/30 06:39:52;;;;;;;31.83;13.32;;;17.00;99.90;;;;;;4962283;29;19952;-94
2023/07/30 07:02:54;;;;;;;31.45;14.85;;;17.20;99.90;;;;;;4990147;28;20067;-94
2023/07/30 07:13:07;;;;;;;32.40;14.07;;;17.30;99.90;;;;;;4955381;29;20031;-90
2023/07/30 07:16:52;;;;;;;;;;;;;;;;;;;;;
2023/07/30 07:19:07;;;;;;;38.88;15.38;;;17.30;99.90;;;;;;4962646;28;20118;-94
2023/07/30 07:25:49;;;;;;;31.20;14.32;;;17.40;99.90;;;;;;4970667;28;20030;-90
2023/07/30 07:31:46;;;;;;;34.15;15.13;;;17.50;99.90;;;;;;5075325;28;20040;-93
2023/07/30 07:41:26;;;;;;;36.78;13.13;;;17.60;99.90;;;;;;5099122;28;20062;-93
2023/07/30 07:44:29;;;;;;;30.75;11.73;;;17.70;99.90;;;;;;5054094;28;20032;-91
2023/07/30 07:47:13;;;;;;;29.25;10.50;;;17.70;99.90;;;;;;5098340;28;20024;-93
2023/07/30 07:49:55;;;;;;;25.33;10.07;;;17.80;99.90;;;;;;5078820;28;20040;-92
2023/07/30 08:06:21;;;;;;;25.55;8.07;;;18.00;99.90;;;;;;5010035;28;20040;-91
2023/07/30 08:27:32;;;;;;;31.73;8.40;;;18.10;99.90;;;;;;4959553;29;20053;-93
2023/07/30 08:37:18;;;;;;;22.45;8.38;;;18.30;99.90;;;;;;5062098;28;20063;-93
2023/07/30 09:15:27;;;;;;;19.17;5.15;;;18.60;99.90;;;;;;4988676;28;20380;-94
2023/07/30 09:25:04;;;;;;;23.77;5.70;;;18.50;99.90;;;;;;5047369;28;20042;-90
2023/07/30 09:28:14;;;;;;;19.58;4.80;;;18.50;99.90;;;;;;5057220;28;20482;-91
2023/07/30 09:31:19;;;;;;;17.35;5.22;;;18.60;99.90;;;;;;5055429;28;20119;-91
2023/07/30 10:21:33;;;;;;;12.63;3.80;;;19.60;99.90;;;;;;4882753;29;20120;-94
2023/07/30 10:56:00;;;;;;;9.02;2.10;;;19.30;99.90;;;;;;4778378;29;20447;-95
2023/07/30 11:02:24;;;;;;;9.52;2.25;;;19.30;99.90;;;;;;4810014;29;20047;-93
2023/07/30 11:04:51;;;;;;;7.93;1.95;;;19.30;99.90;;;;;;4842117;29;20405;-93
2023/07/30 11:07:20;;;;;;;9.15;2.10;;;19.40;99.90;;;;;;4853594;29;20045;-93
2023/07/30 11:10:03;;;;;;;11.52;2.50;;;19.50;99.90;;;;;;4869789;29;20036;-95
2023/07/30 11:12:29;;;;;;;11.88;3.10;;;19.60;99.90;;;;;;4885390;29;20053;-94
2023/07/30 11:15:04;;;;;;;7.63;2.20;;;19.70;99.90;;;;;;4853176;29;20053;-93
2023/07/30 11:17:30;;;;;;;10.85;2.67;;;19.80;99.90;;;;;;4868449;29;20033;-94
2023/07/30 11:19:59;;;;;;;11.00;2.50;;;19.90;99.90;;;;;;4856611;29;20057;-94
2023/07/30 11:22:32;;;;;;;8.43;1.85;;;20.00;99.90;;;;;;4858026;29;20049;-95
2023/07/30 11:25:01;;;;;;;9.45;2.65;;;20.10;99.90;;;;;;4857973;29;20036;-95
2023/07/30 11:27:27;;;;;;;13.20;3.10;;;20.20;99.90;;;;;;4871950;29;20037;-94
2023/07/30 11:29:56;;;;;;;9.05;2.58;;;20.30;99.90;;;;;;4871530;29;20084;-94
2023/07/30 11:32:27;;;;;;;12.00;2.50;;;20.50;99.90;;;;;;4855438;29;20097;-95
2023/07/30 11:35:09;;;;;;;11.20;2.70;;;20.60;99.90;;;;;;4871003;29;20043;-91
2023/07/30 11:47:42;;;;;;;9.02;2.10;;;20.90;99.90;;;;;;4790797;30;20050;-91
2023/07/30 11:50:10;;;;;;;14.02;2.58;;;20.80;99.90;;;;;;4790997;30;20051;-91
2023/07/30 11:59:36;;;;;;;10.27;2.50;;;20.80;99.90;;;;;;4809859;29;20500;-92
2023/07/30 12:06:24;;;;;;;;;;;;;;;;;;;;;
2023/07/30 12:08:53;;;;;;;10.35;2.47;;;20.40;99.90;;;;;;4809564;29;20035;-93
2023/07/30 12:11:58;;;;;;;8.30;1.83;;;20.30;99.90;;;;;;4793387;29;20129;-94
2023/07/30 12:15:06;;;;;;;12.45;2.47;;;20.30;99.90;;;;;;4796265;29;20056;-93
2023/07/30 12:17:31;;;;;;;9.10;2.17;;;20.30;99.90;;;;;;4844728;29;20037;-95
2023/07/30 12:20:06;;;;;;;12.50;3.40;;;20.50;99.90;;;;;;4844126;29;20112;-94
2023/07/30 12:22:36;;;;;;;8.35;2.80;;;20.60;99.90;;;;;;4849095;29;20045;-94
2023/07/30 12:25:05;;;;;;;11.95;2.42;;;20.70;99.90;;;;;;4848815;29;20037;-92
2023/07/30 12:30:27;;;;;;;7.45;1.75;;;20.80;99.90;;;;;;4865217;29;20064;-92
2023/07/30 12:33:00;;;;;;;6.75;1.40;;;20.90;99.90;;;;;;4848148;29;20093;-92
2023/07/30 12:35:26;;;;;;;5.75;1.48;;;21.00;99.90;;;;;;4848359;29;20041;-89
2023/07/30 12:38:35;;;;;;;6.68;1.65;;;21.00;99.90;;;;;;4847747;29;20036;-90
2023/07/30 12:41:13;;;;;;;10.63;1.70;;;21.00;99.90;;;;;;4848264;29;20048;-90
2023/07/30 12:47:15;;;;;;;8.40;1.67;;;21.00;99.90;;;;;;4815813;29;20039;-90
2023/07/30 12:49:41;;;;;;;9.95;1.50;;;21.00;99.90;;;;;;4837344;29;20052;-90
2023/07/30 12:52:07;;;;;;;6.70;1.50;;;21.10;99.90;;;;;;4834004;29;20030;-89
2023/07/30 12:54:38;;;;;;;6.32;1.30;;;21.20;99.90;;;;;;4849299;29;20033;-90
2023/07/30 12:57:09;;;;;;;5.63;1.50;;;21.20;99.90;;;;;;4847964;29;20018;-89
2023/07/30 12:59:38;;;;;;;7.88;1.67;;;21.40;99.90;;;;;;4848417;29;20034;-89
2023/07/30 13:02:06;;;;;;;6.78;1.75;;;21.40;99.90;;;;;;4848388;29;20026;-90
2023/07/30 13:04:34;;;;;;;9.98;1.83;;;21.40;99.90;;;;;;4848189;29;20034;-90
2023/07/30 13:07:10;;;;;;;7.03;1.63;;;21.40;99.90;;;;;;4832545;29;20042;-91
2023/07/30 13:09:38;;;;;;;7.97;1.75;;;21.40;99.90;;;;;;4848713;29;20069;-91
2023/07/30 13:12:13;;;;;;;4.43;1.40;;;21.40;99.90;;;;;;4833351;29;20472;-91
2023/07/30 13:18:59;;;;;;;6.97;1.70;;;21.60;99.90;;;;;;4869735;29;20045;-91
2023/07/30 13:21:31;;;;;;;4.57;1.33;;;21.70;99.90;;;;;;4866829;29;20025;-90
2023/07/30 13:24:00;;;;;;;7.10;1.80;;;21.70;99.90;;;;;;4850838;29;20056;-91
2023/07/30 13:29:55;;;;;;;5.93;1.63;;;21.80;99.90;;;;;;4883324;29;20545;-89
2023/07/30 13:35:58;;;;;;;8.35;1.83;;;21.80;99.70;;;;;;4829872;29;20069;-93
2023/07/30 13:38:33;;;;;;;6.28;1.67;;;21.80;99.90;;;;;;4869827;29;20516;-93
2023/07/30 13:41:14;;;;;;;5.85;1.50;;;21.90;99.90;;;;;;4868478;29;20065;-92
2023/07/30 13:44:05;;;;;;;5.28;1.10;;;22.00;99.90;;;;;;4852948;29;20089;-92
2023/07/30 13:46:50;;;;;;;8.15;1.50;;;22.10;97.80;;;;;;4849738;29;20045;-93
2023/07/30 13:49:22;;;;;;;12.10;1.30;;;22.10;97.20;;;;;;4865521;29;20021;-89
2023/07/30 13:52:24;;;;;;;5.95;1.30;;;22.20;97.30;;;;;;4849780;29;20041;-91
2023/07/30 13:54:50;;;;;;;4.68;1.23;;;22.30;97.00;;;;;;4865623;29;20029;-90
2023/07/30 14:01:21;;;;;;;6.65;1.38;;;22.40;96.20;;;;;;4882014;29;20044;-89
2023/07/30 14:03:50;;;;;;;3.95;1.02;;;22.40;95.10;;;;;;4863851;29;20049;-90
2023/07/30 14:06:57;;;;;;;2.35;0.60;;;22.40;95.40;;;;;;4865390;29;20112;-92
2023/07/30 14:09:44;;;;;;;;;;;;;;;;;;;;;
2023/07/30 14:12:22;;;;;;;6.45;1.20;;;22.40;93.30;;;;;;4783560;29;20044;-92
2023/07/30 14:15:10;;;;;;;4.80;1.30;;;22.50;92.80;;;;;;4849762;29;20064;-91
2023/07/30 14:17:51;;;;;;;4.82;1.20;;;22.50;92.50;;;;;;4820754;29;20124;-92
2023/07/30 14:20:31;;;;;;;4.93;1.40;;;22.50;93.60;;;;;;4852135;29;20029;-94
2023/07/30 14:23:42;;;;;;;3.72;1.10;;;22.60;93.80;;;;;;4852357;29;20065;-94
2023/07/30 14:39:45;;;;;;;5.90;1.75;;;22.70;93.10;;;;;;4684319;30;20099;-88
2023/07/30 14:42:16;;;;;;;9.85;2.00;;;22.70;93.50;;;;;;4737088;30;20037;-90
2023/07/30 14:44:42;;;;;;;9.07;2.13;;;22.70;93.30;;;;;;4751973;30;20040;-88
2023/07/30 14:47:09;;;;;;;16.33;1.90;;;22.70;93.40;;;;;;4835160;29;20388;-89
2023/07/30 14:49:38;;;;;;;9.85;1.80;;;22.70;92.50;;;;;;4848741;29;20124;-90
2023/07/30 14:52:05;;;;;;;9.18;2.22;;;22.70;91.70;;;;;;4863873;29;20037;-89
2023/07/30 14:54:34;;;;;;;6.78;1.80;;;22.60;91.70;;;;;;4864180;29;20121;-89
2023/07/30 14:57:00;;;;;;;8.80;1.80;;;22.50;92.30;;;;;;4885635;29;20024;-89
2023/07/30 14:59:26;;;;;;;9.70;1.98;;;22.50;92.80;;;;;;4885322;29;20005;-90
2023/07/30 15:01:52;;;;;;;9.45;1.85;;;22.50;92.20;;;;;;4867406;29;20053;-89
2023/07/30 15:04:19;;;;;;;9.55;1.90;;;22.50;92.70;;;;;;4876526;29;20037;-90
2023/07/30 15:06:53;;;;;;;7.32;2.20;;;22.60;93.30;;;;;;4853345;29;20041;-90
2023/07/30 15:09:21;;;;;;;11.73;2.38;;;22.60;93.50;;;;;;4875934;29;20048;-91
2023/07/30 15:11:47;;;;;;;7.55;1.90;;;22.70;93.20;;;;;;4851772;29;20128;-89
2023/07/30 15:14:13;;;;;;;8.13;2.78;;;22.70;93.30;;;;;;4837247;29;20045;-91
2023/07/30 15:16:38;;;;;;;10.65;3.47;;;22.60;93.10;;;;;;4852916;29;20041;-92
2023/07/30 15:19:04;;;;;;;12.20;5.65;;;22.50;92.80;;;;;;4867551;29;20081;-91
2023/07/30 15:21:31;;;;;;;11.68;3.58;;;22.50;92.90;;;;;;4883652;29;20032;-91
2023/07/30 15:23:58;;;;;;;9.18;3.03;;;22.40;92.90;;;;;;4868247;29;20029;-90
2023/07/30 15:26:24;;;;;;;10.68;2.92;;;22.30;93.30;;;;;;4852980;29;20058;-91
2023/07/30 15:28:50;;;;;;;9.40;2.83;;;22.30;93.60;;;;;;4851570;29;20398;-90
2023/07/30 15:31:15;;;;;;;10.02;2.45;;;22.20;93.50;;;;;;4880212;29;20033;-91
2023/07/30 15:33:41;;;;;;;7.65;2.40;;;22.10;93.60;;;;;;4864512;29;20029;-91
2023/07/30 15:36:07;;;;;;;11.68;3.13;;;22.10;93.90;;;;;;4863931;29;20395;-91
2023/07/30 15:38:36;;;;;;;11.95;3.30;;;22.10;93.80;;;;;;4848997;29;20073;-90
2023/07/30 15:41:07;;;;;;;10.25;2.05;;;22.10;93.70;;;;;;4864436;29;20132;-92
2023/07/30 15:44:11;;;;;;;9.75;2.83;;;22.10;94.10;;;;;;4849478;29;20081;-91
2023/07/30 15:46:37;;;;;;;8.65;2.28;;;22.00;94.30;;;;;;4875504;29;20078;-89
2023/07/30 15:49:06;;;;;;;8.07;2.22;;;22.00;93.90;;;;;;4881443;29;20021;-90
2023/07/30 15:51:47;;;;;;;8.38;2.60;;;22.00;93.30;;;;;;4879785;29;20041;-91
2023/07/30 15:54:49;;;;;;;7.60;1.92;;;22.00;93.10;;;;;;4877107;29;20040;-92
2023/07/30 15:57:24;;;;;;;9.27;2.05;;;22.00;92.40;;;;;;4886016;29;20109;-91
2023/07/30 15:59:50;;;;;;;11.35;3.13;;;22.00;93.00;;;;;;4846589;29;20065;-91
2023/07/30 16:02:17;;;;;;;15.45;8.77;;;22.00;92.10;;;;;;4884985;29;20033;-93
2023/07/30 16:04:45;;;;;;;12.02;4.20;;;22.00;92.50;;;;;;4890338;29;20017;-93
2023/07/30 16:07:32;;;;;;;8.93;2.83;;;22.10;92.80;;;;;;4885614;29;20041;-91
2023/07/30 16:10:10;;;;;;;9.23;2.47;;;22.20;92.70;;;;;;4869830;29;20033;-90
2023/07/30 16:12:36;;;;;;;11.93;4.13;;;22.20;92.40;;;;;;4868226;29;20033;-90
2023/07/30 16:15:02;;;;;;;9.48;2.72;;;22.20;92.60;;;;;;4852382;29;20041;-91
2023/07/30 16:17:31;;;;;;;7.07;2.80;;;22.30;92.40;;;;;;4867572;29;20391;-93
2023/07/30 16:20:48;;;;;;;8.25;2.58;;;22.30;92.20;;;;;;4867051;29;20022;-90
2023/07/30 16:23:16;;;;;;;9.07;2.40;;;22.30;92.50;;;;;;4867996;29;20036;-91
2023/07/30 16:25:47;;;;;;;8.98;2.55;;;22.30;92.40;;;;;;4868052;29;20013;-93
2023/07/30 16:28:38;;;;;;;13.88;2.65;;;22.20;92.20;;;;;;4894925;29;20040;-93
2023/07/30 16:31:24;;;;;;;9.52;2.47;;;22.20;92.30;;;;;;4890178;29;20020;-92
2023/07/30 16:33:51;;;;;;;7.05;2.20;;;22.20;92.70;;;;;;4889446;29;20036;-92
2023/07/30 16:36:53;;;;;;;7.45;2.10;;;22.20;92.70;;;;;;4876653;29;20037;-93
2023/07/30 16:39:22;;;;;;;10.98;2.42;;;22.20;93.10;;;;;;4866609;29;20547;-93
2023/07/30 16:41:53;;;;;;;8.93;2.30;;;22.20;93.40;;;;;;4866799;29;20029;-93
2023/07/30 16:44:46;;;;;;;12.18;2.90;;;22.10;93.10;;;;;;4882031;29;20052;-92
2023/07/30 16:47:14;;;;;;;12.45;2.90;;;22.10;93.20;;;;;;4882468;29;20029;-92
2023/07/30 16:49:43;;;;;;;11.35;2.85;;;22.10;93.20;;;;;;4882102;29;20089;-93
2023/07/30 16:52:27;;;;;;;12.40;2.95;;;22.00;93.10;;;;;;4882258;29;20126;-89
2023/07/30 16:55:16;;;;;;;14.88;3.72;;;22.00;93.40;;;;;;4866548;29;20093;-89
2023/07/30 16:57:42;;;;;;;12.90;3.28;;;21.90;93.60;;;;;;4867880;29;20093;-90
2023/07/30 17:00:27;;;;;;;9.65;2.90;;;21.90;93.90;;;;;;4880758;29;20032;-92
2023/07/30 17:02:58;;;;;;;8.57;2.72;;;21.90;94.20;;;;;;4882834;29;20036;-93
2023/07/30 17:05:25;;;;;;;14.73;3.20;;;21.90;94.50;;;;;;4866760;29;20033;-91
2023/07/30 17:07:54;;;;;;;13.30;3.53;;;21.80;94.70;;;;;;4866449;29;20041;-91
2023/07/30 17:10:48;;;;;;;12.40;3.05;;;21.90;95.00;;;;;;4903249;29;20013;-91
2023/07/30 17:13:14;;;;;;;16.35;3.42;;;21.80;95.30;;;;;;4904615;29;20064;-91
2023/07/30 17:15:48;;;;;;;12.32;2.45;;;21.90;95.50;;;;;;4904266;29;20032;-91
2023/07/30 17:18:16;;;;;;;11.25;3.10;;;21.90;95.50;;;;;;4884891;29;20020;-91
2023/07/30 17:20:42;;;;;;;11.40;3.20;;;21.80;95.60;;;;;;4881784;29;20024;-91
2023/07/30 17:23:09;;;;;;;11.10;3.00;;;21.80;95.70;;;;;;4881947;29;20020;-91
2023/07/30 17:25:35;;;;;;;12.68;2.75;;;21.70;96.00;;;;;;4881797;29;20052;-92
2023/07/30 17:28:03;;;;;;;9.68;2.85;;;21.70;96.20;;;;;;4881976;29;20372;-92
2023/07/30 17:30:32;;;;;;;13.00;3.15;;;21.70;96.40;;;;;;4882746;29;20555;-90
2023/07/30 17:32:58;;;;;;;12.07;3.10;;;21.70;96.60;;;;;;4881828;29;20629;-91
2023/07/30 17:38:54;;;;;;;12.63;3.63;;;21.60;97.00;;;;;;4859581;29;20109;-91
2023/07/30 17:41:26;;;;;;;13.18;3.40;;;21.50;97.20;;;;;;4833191;29;20047;-90
2023/07/30 17:44:02;;;;;;;16.40;3.17;;;21.50;97.70;;;;;;4862575;29;20029;-90
2023/07/30 17:50:21;;;;;;;14.18;2.80;;;21.40;98.30;;;;;;4900499;29;20028;-92
2023/07/30 17:59:40;;;;;;;10.00;3.58;;;21.20;98.40;;;;;;4828135;29;20102;-90
2023/07/30 18:02:09;;;;;;;11.65;3.10;;;21.10;98.80;;;;;;4803239;29;20027;-90
2023/07/30 18:04:56;;;;;;;17.08;3.95;;;20.90;98.80;;;;;;4818322;29;20023;-91
2023/07/30 18:07:41;;;;;;;12.00;2.72;;;20.90;99.20;;;;;;4873504;29;20048;-92
2023/07/30 18:10:39;;;;;;;9.68;2.92;;;20.80;99.40;;;;;;4892259;29;20419;-91
2023/07/30 18:16:34;;;;;;;7.22;2.28;;;20.60;99.90;;;;;;4900526;29;20508;-91
2023/07/30 18:18:59;;;;;;;6.05;2.25;;;20.50;99.90;;;;;;4855788;29;20050;-92
2023/07/30 18:31:21;;;;;;;6.22;1.80;;;20.10;99.90;;;;;;4806913;29;20099;-93
2023/07/30 18:33:52;;;;;;;5.15;1.83;;;20.10;99.90;;;;;;4791290;29;20374;-90
2023/07/30 18:36:45;;;;;;;7.13;2.42;;;20.00;99.90;;;;;;4792202;29;20035;-92
2023/07/30 18:40:05;;;;;;;4.35;2.08;;;19.90;99.90;;;;;;4773903;30;20107;-91
2023/07/30 18:42:39;;;;;;;7.70;2.28;;;19.90;99.90;;;;;;4812534;29;20138;-92
2023/07/30 18:45:24;;;;;;;6.40;2.47;;;19.80;99.90;;;;;;4809576;29;20073;-91
2023/07/30 18:47:51;;;;;;;9.02;2.70;;;19.70;99.90;;;;;;4805570;29;20045;-91
2023/07/30 18:53:41;;;;;;;6.45;2.35;;;19.50;99.90;;;;;;4861919;29;20085;-92
2023/07/30 18:56:27;;;;;;;8.45;3.17;;;19.50;99.90;;;;;;4831033;29;20026;-92
2023/07/30 18:59:20;;;;;;;6.22;2.30;;;19.50;99.90;;;;;;4845873;29;20038;-90
2023/07/30 19:01:48;;;;;;;6.72;2.80;;;19.40;99.90;;;;;;4841297;29;20526;-91
2023/07/30 19:04:24;;;;;;;7.18;2.60;;;19.40;99.90;;;;;;4845987;29;20090;-90
2023/07/30 19:06:56;;;;;;;10.23;3.13;;;19.30;99.90;;;;;;4853829;29;20028;-90
2023/07/30 19:09:32;;;;;;;8.82;3.15;;;19.20;99.90;;;;;;4864972;29;20040;-91
2023/07/30 19:11:58;;;;;;;9.18;2.78;;;19.10;99.90;;;;;;4880017;29;20043;-91
2023/07/30 19:14:24;;;;;;;8.98;3.13;;;19.10;99.90;;;;;;4888079;29;20063;-89
2023/07/30 19:17:22;;;;;;;;;;;;;;;;;;;;;
2023/07/30 19:23:39;;;;;;;7.97;3.00;;;19.00;99.90;;;;;;4848840;29;20057;-91
2023/07/30 19:26:14;;;;;;;10.73;3.35;;;18.90;99.90;;;;;;4887889;29;20047;-93
2023/07/30 19:29:03;;;;;;;8.50;2.97;;;18.90;99.90;;;;;;4871799;29;20063;-95
2023/07/30 19:34:48;;;;;;;9.07;3.22;;;18.90;99.90;;;;;;4911667;29;20100;-92
2023/07/30 19:40:55;;;;;;;11.10;3.35;;;18.80;99.90;;;;;;4905853;29;20047;-94
2023/07/30 19:44:17;;;;;;;10.05;3.88;;;18.80;99.90;;;;;;4887239;29;20060;-92
2023/07/30 19:47:02;;;;;;;12.80;3.85;;;18.80;99.90;;;;;;4830022;29;20145;-92
2023/07/30 19:50:04;;;;;;;11.23;4.05;;;18.80;99.90;;;;;;4845518;29;20457;-92
2023/07/30 19:52:30;;;;;;;9.80;3.38;;;18.70;99.90;;;;;;4830399;29;20030;-94
2023/07/30 19:55:08;;;;;;;15.13;3.75;;;18.60;99.90;;;;;;4845390;29;20041;-93
2023/07/30 20:04:22;;;;;;;8.48;3.10;;;18.60;99.90;;;;;;4828946;29;20103;-94
2023/07/30 20:06:57;;;;;;;7.90;2.80;;;18.50;99.90;;;;;;4827131;29;20092;-94
2023/07/30 20:09:42;;;;;;;8.23;2.80;;;18.50;99.90;;;;;;4826907;29;20045;-95
2023/07/30 20:12:26;;;;;;;7.13;2.38;;;18.40;99.90;;;;;;4830835;29;20078;-94
2023/07/30 20:18:13;;;;;;;7.38;2.50;;;18.30;99.90;;;;;;4814287;29;20163;-92
2023/07/30 20:24:03;;;;;;;;;;;18.30;99.90;;;;;;4864229;29;20090;-95
2023/07/30 20:43:41;;;;;;;6.82;2.17;;;18.10;99.90;;;;;;4727993;30;20044;-94
2023/07/30 20:50:44;;;;;;;5.55;2.13;;;18.10;99.90;;;;;;4770253;29;20559;-91
2023/07/30 21:20:50;;;;;;;3.90;2.05;;;17.70;99.90;;;;;;4915478;29;20082;-92
2023/07/30 21:30:58;;;;;;;3.05;1.55;;;17.70;99.90;;;;;;4915665;29;20020;-93
2023/07/30 21:41:08;;;;;;;2.60;1.65;;;17.50;99.90;;;;;;4788983;30;20032;-91
2023/07/30 21:45:32;;;;;;;;;;;;;;;;;;;;;
2023/07/30 21:47:32;;;;;;;7.05;2.17;;;17.40;99.90;;;;;;4704525;30;20154;-91
2023/07/30 21:50:05;;;;;;;;;;;17.30;99.90;;;;;;4776258;29;20082;-92
2023/07/30 21:57:01;;;;;;;4.57;1.98;;;17.30;99.90;;;;;;4753079;30;20102;-91
2023/07/30 22:00:33;;;;;;;4.25;1.90;;;17.30;99.90;;;;;;4753655;29;20498;-91
2023/07/30 22:06:40;;;;;;;3.88;1.98;;;17.10;99.90;;;;;;4806922;29;20064;-91
2023/07/30 22:09:20;;;;;;;3.58;1.73;;;17.10;99.90;;;;;;4807838;29;20034;-92
2023/07/30 22:12:28;;;;;;;3.70;1.70;;;17.00;99.90;;;;;;4777745;29;20108;-92
2023/07/30 22:22:08;;;;;;;4.93;2.28;;;16.70;99.90;;;;;;4754054;30;20119;-93
2023/07/30 22:31:49;;;;;;;;;;;16.60;99.90;;;;;;4799114;29;20037;-93
2023/07/30 22:34:33;;;;;;;3.78;2.05;;;16.60;99.90;;;;;;4805591;29;19921;-94
2023/07/30 22:38:00;;;;;;;4.25;2.33;;;16.60;99.90;;;;;;4867964;29;20454;-92
2023/07/30 22:40:26;;;;;;;6.07;2.42;;;16.60;99.90;;;;;;4883636;29;20497;-94
2023/07/30 22:42:58;;;;;;;4.35;2.00;;;16.60;99.90;;;;;;4868871;29;20020;-93
2023/07/30 22:49:16;;;;;;;4.55;2.13;;;16.50;99.90;;;;;;4901111;29;20031;-93
2023/07/30 22:57:53;;;;;;;7.90;2.22;;;16.40;99.90;;;;;;4902275;29;20048;-94
2023/07/30 23:09:51;;;;;;;3.80;1.85;;;16.30;99.90;;;;;;4904967;29;20035;-93
2023/07/30 23:15:48;;;;;;;4.63;2.28;;;16.30;99.90;;;;;;4905394;29;20087;-94
2023/07/30 23:18:19;;;;;;;3.40;1.92;;;16.30;99.90;;;;;;4890807;29;20092;-94
2023/07/30 23:31:23;;;;;;;5.82;2.28;;;16.30;99.90;;;;;;4845993;29;20059;-91
2023/07/30 23:34:01;;;;;;;5.32;2.03;;;16.30;99.90;;;;;;4845848;29;20149;-94
2023/07/30 23:39:56;;;;;;;3.65;1.77;;;16.30;99.90;;;;;;4846856;29;20053;-94
2023/07/30 23:42:29;;;;;;;3.67;1.70;;;16.30;99.90;;;;;;4831931;29;20098;-93
2023/07/30 23:48:26;;;;;;;3.88;1.75;;;16.20;99.90;;;;;;4848725;29;20033;-94
2023/07/30 23:54:25;;;;;;;4.63;2.10;;;16.30;99.90;;;;;;4847502;29;20138;-94
2023/07/30 23:56:50;;;;;;;3.33;1.85;;;16.30;99.90;;;;;;4818713;29;20584;-94
